Time;durP1;ratioP1;P1;durP2;ratioP2;P2;SDS_P1;SDS_P2;PMS_P1;PMS_P2;Temp;Humidity;BMP_temperature;BMP_pressure;BME280_temperature;BME280_humidity;BME280_pressure;Samples;Min_cycle;Max_cycle;Signal;HPM_P1;HPM_P2
2023/01/22 00:00:15;;;;;;;12.98;9.15;;;2.00;99.90;;;;;;5075126;28;20045;-67
2023/01/22 00:02:41;;;;;;;12.82;8.60;;;1.40;99.90;;;;;;5075560;28;20041;-67
2023/01/22 00:05:07;;;;;;;11.98;8.70;;;1.40;99.90;;;;;;5040750;28;20048;-67
2023/01/22 00:07:33;;;;;;;12.23;9.00;;;1.30;99.90;;;;;;5074965;28;20096;-67
2023/01/22 00:09:59;;;;;;;14.27;9.98;;;1.20;99.90;;;;;;5075495;28;20040;-67
2023/01/22 00:12:25;;;;;;;16.55;10.65;;;1.20;99.90;;;;;;5075126;28;20032;-67
2023/01/22 00:14:51;;;;;;;14.77;11.18;;;1.10;99.90;;;;;;5074769;28;20039;-67
2023/01/22 00:17:17;;;;;;;15.68;11.73;;;1.40;99.90;;;;;;5074731;28;20119;-67
2023/01/22 00:19:43;;;;;;;15.98;12.43;;;1.10;99.90;;;;;;5041104;28;20510;-67
2023/01/22 00:22:10;;;;;;;15.55;12.18;;;1.10;99.90;;;;;;5056785;28;20068;-67
2023/01/22 00:24:36;;;;;;;19.95;11.70;;;1.90;99.90;;;;;;5057278;28;20120;-67
2023/01/22 00:27:02;;;;;;;17.42;12.48;;;1.00;99.90;;;;;;5075156;28;20048;-67
2023/01/22 00:29:27;;;;;;;20.13;13.85;;;0.90;99.90;;;;;;5074459;28;20362;-67
2023/01/22 00:31:53;;;;;;;19.90;12.50;;;0.90;99.90;;;;;;5074747;28;20047;-67
2023/01/22 00:34:19;;;;;;;16.85;12.40;;;0.80;99.90;;;;;;5057113;28;20361;-67
2023/01/22 00:36:44;;;;;;;19.02;12.73;;;1.60;99.90;;;;;;5074367;28;20525;-67
2023/01/22 00:39:10;;;;;;;19.77;12.32;;;1.40;99.90;;;;;;5075489;28;20043;-67
2023/01/22 00:41:36;;;;;;;16.40;12.27;;;0.70;99.90;;;;;;5074725;28;20044;-67
2023/01/22 00:44:02;;;;;;;15.15;12.45;;;0.60;99.90;;;;;;5074232;28;20179;-67
2023/01/22 00:46:28;;;;;;;18.08;13.75;;;0.60;99.90;;;;;;5055873;28;20048;-67
2023/01/22 00:48:54;;;;;;;17.75;12.77;;;0.60;99.90;;;;;;5074194;28;20049;-66
2023/01/22 00:51:19;;;;;;;18.00;13.90;;;0.60;99.90;;;;;;5074289;28;20048;-66
2023/01/22 00:53:45;;;;;;;19.40;13.38;;;1.30;99.90;;;;;;5074170;28;20040;-66
2023/01/22 00:56:13;;;;;;;19.83;13.60;;;0.50;99.90;;;;;;5056256;28;20430;-67
2023/01/22 00:58:39;;;;;;;20.67;13.00;;;0.50;99.90;;;;;;5074034;28;20044;-67
2023/01/22 01:01:05;;;;;;;19.00;13.20;;;1.30;99.90;;;;;;5056241;28;20036;-67
2023/01/22 01:03:31;;;;;;;18.80;12.50;;;0.50;99.90;;;;;;5073930;28;20036;-67
2023/01/22 01:06:06;;;;;;;16.77;12.57;;;0.50;99.90;;;;;;5074009;28;20066;-67
2023/01/22 01:08:35;;;;;;;15.65;12.55;;;0.50;99.90;;;;;;5073915;28;20102;-67
2023/01/22 01:11:04;;;;;;;17.35;13.10;;;0.50;99.90;;;;;;5073796;28;20101;-67
2023/01/22 01:13:32;;;;;;;18.90;13.00;;;0.50;99.90;;;;;;5073905;28;20051;-67
2023/01/22 01:16:06;;;;;;;19.42;14.75;;;0.50;99.90;;;;;;5073831;28;20461;-67
2023/01/22 01:18:33;;;;;;;18.45;12.57;;;0.50;99.90;;;;;;5073891;28;20080;-66
2023/01/22 01:20:59;;;;;;;17.88;11.95;;;0.50;99.90;;;;;;5073726;28;20032;-67
2023/01/22 01:23:27;;;;;;;15.43;11.43;;;0.70;99.90;;;;;;5056156;28;20063;-67
2023/01/22 01:25:53;;;;;;;15.93;12.15;;;0.50;99.90;;;;;;5074240;28;20049;-67
2023/01/22 01:28:19;;;;;;;14.98;11.85;;;0.50;99.90;;;;;;5074596;28;20076;-67
2023/01/22 01:30:45;;;;;;;14.68;12.00;;;2.00;99.90;;;;;;5073406;28;20071;-67
2023/01/22 01:33:11;;;;;;;16.75;11.55;;;0.50;99.90;;;;;;5074553;28;20043;-67
2023/01/22 01:35:36;;;;;;;16.83;11.95;;;0.80;99.90;;;;;;5074544;28;20036;-67
2023/01/22 01:38:02;;;;;;;19.13;12.27;;;0.60;99.90;;;;;;5073629;28;20481;-67
2023/01/22 01:40:28;;;;;;;15.55;11.98;;;0.70;99.90;;;;;;5073399;28;20080;-67
2023/01/22 01:42:54;;;;;;;19.67;11.70;;;0.50;99.90;;;;;;5073473;28;20051;-67
2023/01/22 01:45:28;;;;;;;19.02;11.20;;;0.50;99.90;;;;;;5073532;28;20093;-67
2023/01/22 01:48:21;;;;;;;19.42;11.35;;;0.60;99.90;;;;;;5073568;28;20080;-67
2023/01/22 01:50:56;;;;;;;16.05;13.18;;;0.70;99.90;;;;;;5073335;28;20044;-67
2023/01/22 01:53:21;;;;;;;18.52;12.32;;;0.70;99.90;;;;;;5073519;28;20048;-67
2023/01/22 01:55:48;;;;;;;23.30;15.27;;;2.20;99.90;;;;;;5073381;28;20044;-67
2023/01/22 01:58:20;;;;;;;18.00;12.05;;;0.80;99.90;;;;;;5043683;28;20341;-67
2023/01/22 02:00:50;;;;;;;18.33;13.18;;;0.90;99.90;;;;;;5077370;28;20123;-67
2023/01/22 02:03:17;;;;;;;16.65;12.38;;;0.90;99.90;;;;;;5077339;28;20079;-67
2023/01/22 02:05:42;;;;;;;17.30;11.63;;;1.00;99.90;;;;;;5077158;28;20056;-67
2023/01/22 02:08:08;;;;;;;21.65;11.65;;;1.00;99.90;;;;;;5077826;28;20082;-67
2023/01/22 02:10:35;;;;;;;16.83;11.40;;;1.10;99.90;;;;;;5059248;28;20040;-67
2023/01/22 02:13:06;;;;;;;18.58;12.90;;;1.10;99.90;;;;;;5060001;28;20338;-67
2023/01/22 02:15:32;;;;;;;15.73;11.55;;;1.20;99.90;;;;;;5078013;28;20048;-67
2023/01/22 02:17:58;;;;;;;15.07;12.15;;;1.50;99.90;;;;;;5077022;28;20040;-67
2023/01/22 02:20:23;;;;;;;20.63;12.30;;;1.20;99.90;;;;;;5076723;28;20139;-67
2023/01/22 02:22:49;;;;;;;18.02;11.18;;;1.20;99.90;;;;;;5059016;28;20036;-67
2023/01/22 02:25:15;;;;;;;14.93;10.38;;;1.60;99.90;;;;;;5076621;28;20074;-67
2023/01/22 02:27:41;;;;;;;14.48;10.70;;;1.30;99.90;;;;;;5076834;28;20389;-67
2023/01/22 02:30:07;;;;;;;16.08;10.45;;;1.30;99.90;;;;;;5076873;28;20040;-67
2023/01/22 02:32:33;;;;;;;13.02;10.57;;;1.30;99.90;;;;;;5076766;28;20043;-67
2023/01/22 02:34:59;;;;;;;18.55;12.80;;;1.90;99.90;;;;;;5076681;28;20040;-67
2023/01/22 02:37:24;;;;;;;13.38;10.65;;;1.30;99.90;;;;;;5058867;28;20045;-67
2023/01/22 02:39:50;;;;;;;16.90;10.70;;;1.30;99.90;;;;;;5076335;28;20106;-67
2023/01/22 02:42:16;;;;;;;18.30;11.35;;;1.30;99.90;;;;;;5076487;28;20040;-67
2023/01/22 02:44:41;;;;;;;12.05;9.70;;;1.30;99.90;;;;;;5076648;28;20131;-67
2023/01/22 02:47:07;;;;;;;14.65;9.77;;;1.30;99.90;;;;;;5076772;28;20071;-67
2023/01/22 02:49:34;;;;;;;14.20;9.63;;;1.40;99.90;;;;;;5076529;28;20113;-67
2023/01/22 02:52:00;;;;;;;17.92;10.25;;;1.40;99.90;;;;;;5058640;28;20473;-67
2023/01/22 02:54:25;;;;;;;14.43;9.68;;;1.40;99.90;;;;;;5076317;28;20127;-67
2023/01/22 02:56:51;;;;;;;15.68;9.20;;;1.60;99.90;;;;;;5076361;28;20044;-67
2023/01/22 02:59:17;;;;;;;14.90;8.45;;;1.40;99.90;;;;;;5076550;28;20041;-67
2023/01/22 03:01:43;;;;;;;11.32;7.95;;;1.40;99.90;;;;;;5076115;28;20041;-66
2023/01/22 03:04:11;;;;;;;8.13;6.75;;;1.80;99.90;;;;;;5076222;28;20127;-67
2023/01/22 03:06:39;;;;;;;10.80;7.93;;;1.50;99.90;;;;;;5058198;28;20055;-67
2023/01/22 03:09:06;;;;;;;8.80;7.22;;;1.60;99.90;;;;;;5057610;28;20040;-67
2023/01/22 03:11:34;;;;;;;11.13;8.23;;;2.00;99.90;;;;;;5076115;28;20484;-67
2023/01/22 03:22:14;;;;;;;9.02;6.88;;;1.60;99.90;;;;;;5076571;28;20047;-67
2023/01/22 03:24:41;;;;;;;12.77;6.70;;;1.70;99.90;;;;;;5058419;28;20049;-67
2023/01/22 03:27:07;;;;;;;7.22;6.45;;;1.70;99.90;;;;;;5058439;28;20050;-67
2023/01/22 03:29:32;;;;;;;8.05;7.03;;;1.70;99.90;;;;;;5075751;28;20037;-67
2023/01/22 03:31:58;;;;;;;6.57;5.63;;;1.70;99.90;;;;;;5057939;28;20483;-67
2023/01/22 03:34:25;;;;;;;6.88;5.60;;;2.10;99.90;;;;;;5041885;28;20036;-67
2023/01/22 03:36:50;;;;;;;9.48;5.65;;;1.70;99.90;;;;;;5075656;28;20040;-67
2023/01/22 03:39:16;;;;;;;8.15;5.90;;;2.00;99.90;;;;;;5076110;28;20047;-67
2023/01/22 03:41:42;;;;;;;9.60;5.93;;;1.70;99.90;;;;;;5075712;28;20043;-66
2023/01/22 03:44:10;;;;;;;8.00;5.72;;;1.70;99.90;;;;;;5075386;28;20489;-67
2023/01/22 03:46:38;;;;;;;5.65;5.03;;;1.70;99.90;;;;;;5075380;28;20044;-66
2023/01/22 03:49:05;;;;;;;6.03;5.05;;;1.70;99.90;;;;;;5075387;28;20439;-66
2023/01/22 03:51:31;;;;;;;8.10;5.38;;;1.70;99.90;;;;;;5075602;28;20385;-66
2023/01/22 03:53:58;;;;;;;10.48;6.22;;;1.80;99.90;;;;;;5075175;28;20044;-67
2023/01/22 03:56:24;;;;;;;8.68;5.95;;;1.80;99.90;;;;;;5058141;28;20373;-67
2023/01/22 03:58:50;;;;;;;6.85;4.93;;;1.80;99.90;;;;;;5075055;28;20147;-67
2023/01/22 04:01:19;;;;;;;7.50;5.65;;;1.80;99.90;;;;;;5057808;28;20076;-67
2023/01/22 04:03:45;;;;;;;9.93;7.43;;;2.00;99.90;;;;;;5075040;28;20040;-67
2023/01/22 04:06:11;;;;;;;10.25;5.72;;;1.80;99.90;;;;;;5075306;28;20453;-67
2023/01/22 04:08:38;;;;;;;7.25;4.70;;;1.80;99.90;;;;;;5074570;28;20045;-67
2023/01/22 04:11:05;;;;;;;8.07;5.57;;;2.00;99.90;;;;;;5074878;28;20051;-67
2023/01/22 04:13:32;;;;;;;10.02;5.38;;;1.80;99.90;;;;;;5074867;28;20046;-67
2023/01/22 04:15:58;;;;;;;6.60;4.78;;;1.80;99.90;;;;;;5075567;28;20191;-66
2023/01/22 04:18:24;;;;;;;7.50;5.53;;;2.20;99.90;;;;;;5074766;28;20500;-67
2023/01/22 04:20:51;;;;;;;7.80;5.18;;;2.20;99.90;;;;;;5055808;28;20075;-67
2023/01/22 04:23:18;;;;;;;7.05;5.60;;;2.00;99.90;;;;;;5057393;28;20462;-67
2023/01/22 04:25:44;;;;;;;7.20;4.97;;;1.80;99.90;;;;;;5074335;28;20453;-67
2023/01/22 04:28:10;;;;;;;7.47;5.25;;;1.90;99.90;;;;;;5074593;28;20146;-67
2023/01/22 04:30:40;;;;;;;7.18;5.18;;;1.80;99.90;;;;;;5075107;28;20131;-67
2023/01/22 04:33:06;;;;;;;8.23;4.72;;;1.80;99.90;;;;;;5074506;28;20086;-67
2023/01/22 04:35:34;;;;;;;6.13;4.63;;;1.80;99.90;;;;;;5074525;28;20045;-67
2023/01/22 04:38:00;;;;;;;6.63;4.32;;;1.80;99.90;;;;;;5074474;28;20055;-67
2023/01/22 04:40:25;;;;;;;4.72;4.22;;;1.80;99.90;;;;;;5074492;28;20041;-67
2023/01/22 04:42:51;;;;;;;6.45;4.90;;;2.10;99.90;;;;;;5081171;28;20043;-67
2023/01/22 04:45:17;;;;;;;13.18;4.80;;;1.80;99.90;;;;;;5081819;28;20083;-66
2023/01/22 04:47:45;;;;;;;8.27;4.68;;;1.80;99.90;;;;;;5080250;28;20048;-66
2023/01/22 04:50:16;;;;;;;9.23;5.30;;;1.80;99.90;;;;;;5080161;28;20052;-66
2023/01/22 04:52:42;;;;;;;7.30;4.93;;;1.80;99.90;;;;;;5074679;28;20056;-78
2023/01/22 04:55:08;;;;;;;7.75;4.88;;;1.70;99.90;;;;;;5074129;28;20043;-78
2023/01/22 04:57:34;;;;;;;6.85;4.70;;;1.70;99.90;;;;;;5072727;28;20075;-78
2023/01/22 04:59:59;;;;;;;7.40;5.07;;;2.20;99.90;;;;;;5072538;28;20128;-78
2023/01/22 05:02:25;;;;;;;8.43;4.90;;;2.40;99.90;;;;;;5073035;28;20040;-77
2023/01/22 05:04:51;;;;;;;9.00;5.93;;;1.80;99.90;;;;;;5055769;28;20048;-77
2023/01/22 05:07:16;;;;;;;5.60;4.68;;;1.80;99.90;;;;;;5073322;28;20047;-77
2023/01/22 05:09:42;;;;;;;9.50;6.05;;;1.80;99.90;;;;;;5072812;28;20433;-77
2023/01/22 05:12:08;;;;;;;7.53;5.30;;;1.70;99.90;;;;;;5072372;28;20113;-77
2023/01/22 05:14:33;;;;;;;6.80;4.95;;;1.70;99.90;;;;;;5072196;28;20119;-77
2023/01/22 05:17:00;;;;;;;6.05;4.70;;;2.40;99.90;;;;;;5072977;28;20105;-77
2023/01/22 05:19:25;;;;;;;7.20;5.05;;;2.00;99.90;;;;;;5054744;28;20044;-78
2023/01/22 05:21:51;;;;;;;7.60;5.15;;;1.70;99.90;;;;;;5073145;28;20047;-78
2023/01/22 05:24:17;;;;;;;8.35;5.05;;;2.10;99.90;;;;;;5073415;28;20124;-78
2023/01/22 05:26:43;;;;;;;5.10;4.55;;;1.70;99.90;;;;;;5054483;28;20442;-77
2023/01/22 05:29:09;;;;;;;9.20;5.60;;;2.10;99.90;;;;;;5072533;28;20044;-78
2023/01/22 05:31:35;;;;;;;8.35;5.40;;;1.70;99.90;;;;;;5054688;28;20052;-77
2023/01/22 05:34:01;;;;;;;8.88;5.00;;;2.20;99.90;;;;;;5071614;28;20044;-78
2023/01/22 05:36:26;;;;;;;7.38;5.53;;;1.80;99.90;;;;;;5072636;28;20032;-79
2023/01/22 05:38:52;;;;;;;8.18;5.93;;;2.20;99.90;;;;;;5054798;28;20127;-78
2023/01/22 05:41:18;;;;;;;7.95;6.32;;;1.80;99.90;;;;;;5072293;28;20041;-77
2023/01/22 05:43:43;;;;;;;7.03;5.30;;;1.60;99.90;;;;;;5072707;28;20055;-78
2023/01/22 05:46:09;;;;;;;7.78;5.47;;;1.60;99.90;;;;;;5055383;28;20040;-79
2023/01/22 05:48:35;;;;;;;7.32;5.97;;;1.60;99.90;;;;;;5072136;28;20043;-77
2023/01/22 05:51:05;;;;;;;8.75;5.97;;;1.70;99.90;;;;;;5072587;28;20060;-79
2023/01/22 05:53:32;;;;;;;6.88;6.00;;;1.50;99.90;;;;;;5054639;28;20481;-78
2023/01/22 05:56:05;;;;;;;6.13;5.20;;;1.50;99.90;;;;;;5072530;28;20056;-78
2023/01/22 05:58:32;;;;;;;8.13;6.63;;;1.50;99.90;;;;;;5073346;28;20123;-78
2023/01/22 06:00:58;;;;;;;6.78;6.07;;;1.60;99.90;;;;;;5072140;28;20046;-78
2023/01/22 06:03:24;;;;;;;7.35;6.30;;;1.50;99.90;;;;;;5072206;28;20067;-77
2023/01/22 06:06:01;;;;;;;7.68;5.93;;;1.60;99.90;;;;;;5037586;28;20062;-78
2023/01/22 06:08:27;;;;;;;9.65;6.28;;;1.50;99.90;;;;;;5072565;28;20040;-77
2023/01/22 06:11:19;;;;;;;9.65;7.20;;;1.50;99.90;;;;;;5072618;28;20040;-77
2023/01/22 06:13:46;;;;;;;7.75;6.05;;;1.50;99.90;;;;;;5071389;28;20050;-78
2023/01/22 06:16:11;;;;;;;7.05;6.07;;;1.40;99.90;;;;;;5072173;28;20493;-77
2023/01/22 06:18:37;;;;;;;6.63;5.50;;;1.70;99.90;;;;;;5054846;28;20041;-77
2023/01/22 06:21:05;;;;;;;7.90;5.95;;;1.40;99.90;;;;;;5072881;28;20200;-77
2023/01/22 06:23:31;;;;;;;7.85;5.88;;;1.50;99.90;;;;;;5072346;28;20045;-77
2023/01/22 06:25:58;;;;;;;8.93;6.22;;;1.50;99.90;;;;;;5072292;28;20044;-78
2023/01/22 06:28:24;;;;;;;9.68;7.57;;;1.80;99.90;;;;;;5071996;28;20047;-77
2023/01/22 06:30:52;;;;;;;8.10;6.28;;;1.40;99.90;;;;;;5072324;28;20033;-78
2023/01/22 06:33:18;;;;;;;9.30;6.55;;;1.40;99.90;;;;;;5072374;28;20131;-79
2023/01/22 06:35:43;;;;;;;8.65;6.68;;;1.40;99.90;;;;;;5072538;28;20441;-78
2023/01/22 06:38:09;;;;;;;8.25;7.10;;;1.40;99.90;;;;;;5072587;28;20040;-79
2023/01/22 06:40:35;;;;;;;7.90;5.97;;;1.40;99.90;;;;;;5071885;28;20041;-78
2023/01/22 06:43:05;;;;;;;7.85;5.63;;;1.40;99.90;;;;;;5072213;28;20089;-78
2023/01/22 06:45:31;;;;;;;7.45;5.75;;;1.40;99.90;;;;;;5075569;28;20052;-78
2023/01/22 06:47:57;;;;;;;9.23;6.50;;;1.90;99.90;;;;;;5058258;28;20059;-79
2023/01/22 06:50:22;;;;;;;7.40;6.25;;;1.40;99.90;;;;;;5076062;28;20389;-78
2023/01/22 06:52:48;;;;;;;7.65;5.82;;;1.30;99.90;;;;;;5058109;28;20141;-79
2023/01/22 06:55:14;;;;;;;8.68;6.20;;;2.00;99.90;;;;;;5075888;28;20051;-79
2023/01/22 06:57:40;;;;;;;6.93;5.93;;;1.30;99.90;;;;;;5076154;28;20118;-78
2023/01/22 07:00:06;;;;;;;8.80;6.65;;;1.70;99.90;;;;;;5076035;28;20118;-80
2023/01/22 07:02:32;;;;;;;9.02;6.43;;;1.30;99.90;;;;;;5076117;28;20041;-78
2023/01/22 07:04:58;;;;;;;7.55;6.72;;;1.30;99.90;;;;;;5076253;28;20119;-79
2023/01/22 07:07:24;;;;;;;8.30;6.35;;;1.80;99.90;;;;;;5075736;28;20545;-79
2023/01/22 07:09:49;;;;;;;8.90;6.38;;;1.90;99.90;;;;;;5075292;28;20123;-79
2023/01/22 07:12:15;;;;;;;7.30;6.38;;;1.30;99.90;;;;;;5057646;28;20051;-80
2023/01/22 07:14:41;;;;;;;9.10;6.90;;;1.30;99.90;;;;;;5075167;28;20086;-78
2023/01/22 07:17:06;;;;;;;6.35;5.63;;;1.30;99.90;;;;;;5075734;28;20044;-79
2023/01/22 07:19:32;;;;;;;6.75;6.15;;;1.30;99.90;;;;;;5075826;28;20131;-79
2023/01/22 07:21:58;;;;;;;8.43;6.43;;;1.80;99.90;;;;;;5041541;28;20126;-80
2023/01/22 07:24:23;;;;;;;10.15;6.38;;;1.50;99.90;;;;;;5075953;28;20093;-79
2023/01/22 07:26:49;;;;;;;7.10;5.90;;;2.20;99.90;;;;;;5075893;28;20040;-80
2023/01/22 07:29:15;;;;;;;9.27;7.32;;;1.30;99.90;;;;;;5076164;28;20093;-79
2023/01/22 07:31:40;;;;;;;8.73;6.28;;;1.30;99.90;;;;;;5075633;28;20036;-79
2023/01/22 07:34:06;;;;;;;8.93;6.18;;;1.30;99.90;;;;;;5058288;28;20040;-79
2023/01/22 07:36:32;;;;;;;9.60;6.57;;;1.60;99.90;;;;;;5076034;28;20126;-82
2023/01/22 07:38:57;;;;;;;7.88;7.07;;;1.70;99.90;;;;;;5075540;28;20098;-83
2023/01/22 07:41:23;;;;;;;7.28;6.57;;;2.30;99.90;;;;;;5057714;28;20045;-80
2023/01/22 07:43:49;;;;;;;9.27;8.30;;;1.30;99.90;;;;;;5075515;28;20086;-80
2023/01/22 07:46:15;;;;;;;6.28;5.68;;;1.40;99.90;;;;;;5075963;28;20508;-80
2023/01/22 07:48:40;;;;;;;10.35;6.85;;;1.30;99.90;;;;;;5075368;28;20059;-79
2023/01/22 07:51:07;;;;;;;8.50;7.35;;;1.30;99.90;;;;;;5075888;28;20052;-80
2023/01/22 07:53:33;;;;;;;8.10;7.13;;;1.30;99.90;;;;;;5075330;28;20052;-80
2023/01/22 07:56:00;;;;;;;9.05;6.88;;;1.20;99.90;;;;;;5074984;28;20195;-79
2023/01/22 07:58:26;;;;;;;10.98;8.50;;;2.00;99.90;;;;;;5076038;28;20047;-80
2023/01/22 08:00:52;;;;;;;9.50;6.50;;;1.30;99.90;;;;;;5040738;28;20469;-80
2023/01/22 08:03:17;;;;;;;12.60;7.05;;;1.30;99.90;;;;;;5075136;28;20117;-80
2023/01/22 08:05:43;;;;;;;9.82;7.03;;;1.30;99.90;;;;;;5057243;28;20048;-80
2023/01/22 08:08:15;;;;;;;10.80;6.50;;;1.20;99.90;;;;;;5075054;28;20074;-80
2023/01/22 08:10:41;;;;;;;9.10;7.20;;;1.80;99.90;;;;;;5075016;28;20052;-78
2023/01/22 08:13:07;;;;;;;8.43;7.57;;;1.30;99.90;;;;;;5075720;28;20051;-79
2023/01/22 08:15:32;;;;;;;10.48;7.80;;;2.00;99.90;;;;;;5074721;28;20469;-80
2023/01/22 08:17:58;;;;;;;9.77;7.85;;;1.30;99.90;;;;;;5075139;28;20041;-79
2023/01/22 08:20:24;;;;;;;10.27;7.43;;;1.20;99.90;;;;;;5057309;28;20064;-80
2023/01/22 08:22:55;;;;;;;8.48;7.63;;;1.90;99.90;;;;;;5073779;28;20037;-78
2023/01/22 08:25:21;;;;;;;9.35;7.63;;;1.20;99.90;;;;;;5075202;28;20339;-78
2023/01/22 08:27:46;;;;;;;10.65;7.32;;;1.40;99.90;;;;;;5074949;28;20047;-77
2023/01/22 08:30:13;;;;;;;7.55;6.70;;;1.30;99.90;;;;;;5056687;28;20477;-78
2023/01/22 08:32:44;;;;;;;13.70;6.85;;;1.30;99.90;;;;;;5074521;28;20040;-77
2023/01/22 08:35:10;;;;;;;9.07;6.85;;;1.30;99.90;;;;;;5075095;28;20070;-77
2023/01/22 08:37:36;;;;;;;8.90;6.40;;;1.40;99.90;;;;;;5074530;28;20044;-77
2023/01/22 08:40:03;;;;;;;8.18;6.75;;;1.40;99.90;;;;;;5074863;28;20048;-77
2023/01/22 08:42:29;;;;;;;9.52;6.38;;;1.40;99.90;;;;;;5057264;28;20048;-78
2023/01/22 08:44:54;;;;;;;10.88;6.38;;;1.50;99.90;;;;;;5074148;28;20359;-78
2023/01/22 08:47:20;;;;;;;11.48;7.85;;;1.40;99.90;;;;;;5073371;28;20044;-79
2023/01/22 08:49:45;;;;;;;9.30;6.60;;;1.40;99.90;;;;;;5073318;28;20063;-77
2023/01/22 08:52:26;;;;;;;13.48;6.88;;;1.60;99.90;;;;;;5074318;28;20052;-81
2023/01/22 08:54:52;;;;;;;8.20;6.90;;;1.40;99.90;;;;;;5058717;28;20515;-78
2023/01/22 08:57:18;;;;;;;9.25;6.57;;;1.40;99.90;;;;;;5056877;28;20079;-80
2023/01/22 08:59:43;;;;;;;9.23;6.20;;;1.40;99.90;;;;;;5074603;28;20036;-80
2023/01/22 09:02:12;;;;;;;10.15;7.35;;;1.40;99.90;;;;;;5073982;28;20534;-80
2023/01/22 09:04:39;;;;;;;8.93;7.40;;;1.40;99.90;;;;;;5074289;28;20121;-78
2023/01/22 09:07:04;;;;;;;9.18;7.28;;;1.40;99.90;;;;;;5073657;28;20051;-78
2023/01/22 09:09:30;;;;;;;8.95;7.95;;;2.00;99.90;;;;;;5039609;28;20053;-77
2023/01/22 09:11:56;;;;;;;13.07;7.50;;;1.90;99.90;;;;;;5073943;28;20039;-77
2023/01/22 09:14:21;;;;;;;7.28;6.35;;;1.40;99.90;;;;;;5073927;28;20043;-77
2023/01/22 09:16:47;;;;;;;8.77;6.47;;;1.40;99.90;;;;;;5074584;28;20072;-79
2023/01/22 09:19:13;;;;;;;7.65;6.13;;;1.40;99.90;;;;;;5073852;28;20127;-79
2023/01/22 09:21:39;;;;;;;12.20;6.90;;;1.50;99.90;;;;;;5073686;28;20047;-71
2023/01/22 09:24:06;;;;;;;8.48;6.45;;;1.50;99.90;;;;;;5074121;28;20047;-77
2023/01/22 09:26:32;;;;;;;7.22;6.40;;;1.50;99.90;;;;;;5055931;28;20044;-76
2023/01/22 09:29:03;;;;;;;9.52;6.88;;;1.50;99.90;;;;;;5074270;28;20037;-76
2023/01/22 09:31:28;;;;;;;9.05;6.80;;;1.60;99.90;;;;;;5074292;28;20040;-82
2023/01/22 09:33:54;;;;;;;10.02;6.65;;;1.60;99.90;;;;;;5073607;28;20544;-79
2023/01/22 09:36:20;;;;;;;8.77;5.78;;;1.70;99.90;;;;;;5074069;28;20127;-78
2023/01/22 09:38:46;;;;;;;11.73;6.93;;;2.00;99.90;;;;;;5073680;28;20418;-79
2023/01/22 09:41:35;;;;;;;7.82;6.18;;;1.70;99.90;;;;;;5073440;28;20090;-80
2023/01/22 09:44:21;;;;;;;10.63;7.47;;;1.70;99.90;;;;;;5073618;28;20044;-77
2023/01/22 09:47:02;;;;;;;9.77;6.68;;;1.70;99.90;;;;;;5074093;28;20044;-80
2023/01/22 09:49:37;;;;;;;8.45;6.07;;;1.60;99.90;;;;;;5073569;28;20040;-70
2023/01/22 09:52:05;;;;;;;8.27;6.60;;;2.30;99.90;;;;;;5073433;28;20061;-79
2023/01/22 09:54:31;;;;;;;10.38;6.78;;;2.60;99.90;;;;;;5073420;28;20088;-81
2023/01/22 09:57:00;;;;;;;9.35;6.93;;;2.10;99.90;;;;;;5073419;28;20048;-82
2023/01/22 09:59:42;;;;;;;9.00;6.30;;;1.70;99.90;;;;;;5073555;28;20043;-80
2023/01/22 10:02:20;;;;;;;9.70;7.28;;;1.70;99.90;;;;;;5073310;28;20033;-80
2023/01/22 10:04:48;;;;;;;11.02;6.55;;;1.70;99.90;;;;;;5056273;28;20036;-79
2023/01/22 10:07:31;;;;;;;9.65;7.60;;;1.70;99.90;;;;;;5074098;28;20103;-81
2023/01/22 10:10:20;;;;;;;8.40;6.43;;;2.00;99.90;;;;;;5073900;28;20048;-80
2023/01/22 10:13:08;;;;;;;10.57;8.32;;;1.80;99.90;;;;;;5072536;28;20040;-79
2023/01/22 10:15:34;;;;;;;8.65;7.10;;;1.90;99.90;;;;;;5073756;28;20041;-80
2023/01/22 10:18:07;;;;;;;10.55;6.32;;;2.10;99.90;;;;;;5074846;28;20040;-78
2023/01/22 10:20:33;;;;;;;8.07;5.95;;;2.10;99.90;;;;;;5077378;28;20036;-75
2023/01/22 10:23:07;;;;;;;8.18;7.28;;;2.80;99.90;;;;;;5076447;28;20042;-77
2023/01/22 10:25:33;;;;;;;10.70;6.53;;;2.20;99.90;;;;;;5076511;28;20081;-75
2023/01/22 10:28:00;;;;;;;7.10;6.05;;;2.20;99.90;;;;;;5076130;28;20112;-79
2023/01/22 10:30:27;;;;;;;7.10;6.40;;;2.20;99.90;;;;;;5075642;28;20044;-83
2023/01/22 10:33:05;;;;;;;8.88;6.85;;;2.20;99.90;;;;;;5076308;28;20446;-84
2023/01/22 10:35:40;;;;;;;8.32;6.68;;;2.50;99.90;;;;;;5076073;28;20409;-82
2023/01/22 10:38:25;;;;;;;9.77;7.03;;;2.60;99.90;;;;;;5057901;28;20072;-81
2023/01/22 10:41:00;;;;;;;8.88;6.93;;;2.20;99.90;;;;;;5076868;28;20048;-84
2023/01/22 10:43:34;;;;;;;8.52;6.65;;;2.20;99.90;;;;;;5076222;28;20040;-83
2023/01/22 10:46:22;;;;;;;7.25;6.47;;;2.30;99.90;;;;;;5075505;28;20361;-80
2023/01/22 10:49:04;;;;;;;8.50;6.30;;;2.30;99.90;;;;;;5076126;28;20047;-79
2023/01/22 10:51:38;;;;;;;7.60;6.90;;;2.40;99.90;;;;;;5076281;28;20118;-83
2023/01/22 10:54:18;;;;;;;9.23;6.70;;;2.20;99.90;;;;;;5077351;28;20405;-83
2023/01/22 10:56:44;;;;;;;9.20;7.32;;;2.20;99.90;;;;;;5077007;28;20052;-82
2023/01/22 10:59:23;;;;;;;8.82;7.00;;;2.30;99.90;;;;;;5076352;28;20044;-82
2023/01/22 11:02:00;;;;;;;8.25;7.10;;;2.30;99.90;;;;;;5075005;28;20372;-81
2023/01/22 11:04:28;;;;;;;7.88;7.07;;;2.40;99.90;;;;;;5074769;28;20037;-72
2023/01/22 11:07:08;;;;;;;8.07;6.95;;;2.40;99.90;;;;;;5075797;28;20044;-82
2023/01/22 11:09:38;;;;;;;7.70;6.90;;;2.40;99.90;;;;;;5074936;28;20434;-81
2023/01/22 11:12:21;;;;;;;10.57;5.90;;;2.50;99.90;;;;;;5075449;28;20481;-82
2023/01/22 11:14:59;;;;;;;10.23;7.00;;;2.50;99.90;;;;;;5075492;28;20449;-79
2023/01/22 11:17:37;;;;;;;10.65;7.28;;;2.50;99.90;;;;;;5075137;28;20465;-82
2023/01/22 11:20:28;;;;;;;6.97;6.20;;;2.60;99.90;;;;;;5075138;28;20040;-81
2023/01/22 11:23:09;;;;;;;10.45;7.50;;;2.70;99.90;;;;;;5074762;28;20174;-78
2023/01/22 11:25:42;;;;;;;6.20;5.60;;;3.30;99.90;;;;;;5075012;28;20075;-85
2023/01/22 11:28:26;;;;;;;8.75;7.70;;;2.70;99.90;;;;;;5074993;28;20044;-87
2023/01/22 11:31:15;;;;;;;8.80;6.90;;;2.70;99.90;;;;;;5074083;28;20056;-82
2023/01/22 11:34:01;;;;;;;7.53;6.07;;;2.80;99.90;;;;;;5037100;28;20060;-83
2023/01/22 11:36:32;;;;;;;7.88;7.10;;;2.70;99.90;;;;;;5075646;28;20040;-83
2023/01/22 11:39:10;;;;;;;9.02;6.07;;;2.70;99.90;;;;;;5074161;28;20531;-81
2023/01/22 11:41:54;;;;;;;8.93;6.38;;;2.70;99.90;;;;;;5074424;28;20124;-75
2023/01/22 11:44:38;;;;;;;;;;;2.60;99.90;;;;;;5075065;28;20037;-79
2023/01/22 11:47:28;;;;;;;6.93;6.15;;;2.60;99.90;;;;;;5056709;28;19920;-78
2023/01/22 11:50:23;;;;;;;10.18;6.85;;;2.60;99.90;;;;;;5074692;28;20127;-79
2023/01/22 11:52:52;;;;;;;7.13;6.43;;;2.70;99.90;;;;;;5074757;28;20179;-79
2023/01/22 11:55:26;;;;;;;6.55;5.95;;;2.70;99.90;;;;;;5074357;28;20088;-80
2023/01/22 11:58:14;;;;;;;7.50;5.65;;;2.80;99.90;;;;;;5074169;28;20101;-79
2023/01/22 12:00:55;;;;;;;7.53;5.75;;;2.80;99.90;;;;;;5075715;28;20032;-80
2023/01/22 12:03:44;;;;;;;8.00;5.47;;;2.80;99.90;;;;;;5057168;28;20094;-80
2023/01/22 12:06:16;;;;;;;6.80;5.85;;;2.80;99.90;;;;;;5074985;28;20041;-80
2023/01/22 12:09:05;;;;;;;9.07;6.18;;;2.90;99.90;;;;;;5074569;28;20132;-79
2023/01/22 12:11:55;;;;;;;6.63;5.93;;;2.90;99.90;;;;;;5074641;28;20036;-80
2023/01/22 12:14:40;;;;;;;10.68;5.90;;;2.90;99.90;;;;;;5077883;28;20048;-76
2023/01/22 12:17:37;;;;;;;9.30;6.30;;;2.90;99.90;;;;;;5086604;28;20047;-84
2023/01/22 12:20:18;;;;;;;7.72;7.03;;;2.80;99.90;;;;;;5074020;28;20040;-79
2023/01/22 12:22:53;;;;;;;7.25;6.05;;;2.80;99.90;;;;;;5073829;28;20110;-81
2023/01/22 12:25:31;;;;;;;7.75;5.68;;;2.20;99.90;;;;;;5073333;28;20070;-78
2023/01/22 12:28:09;;;;;;;7.65;5.32;;;2.80;99.90;;;;;;5073105;28;20048;-83
2023/01/22 12:30:57;;;;;;;7.70;6.57;;;2.80;99.90;;;;;;5074460;28;20044;-83
2023/01/22 12:33:27;;;;;;;7.97;6.10;;;2.70;99.90;;;;;;5073479;28;20131;-83
2023/01/22 12:35:59;;;;;;;9.10;5.53;;;3.60;99.90;;;;;;5073672;28;20040;-81
2023/01/22 12:38:35;;;;;;;9.10;5.80;;;2.80;99.90;;;;;;5073229;28;20118;-83
2023/01/22 12:41:23;;;;;;;8.43;5.75;;;2.80;99.90;;;;;;5072347;28;20044;-77
2023/01/22 12:43:58;;;;;;;11.20;6.05;;;2.80;99.90;;;;;;5073692;28;20040;-82
2023/01/22 12:46:42;;;;;;;9.77;5.63;;;2.80;99.90;;;;;;5054907;28;20047;-84
2023/01/22 12:49:11;;;;;;;7.85;6.28;;;2.80;99.90;;;;;;5074088;28;20082;-85
2023/01/22 12:51:41;;;;;;;8.77;5.78;;;2.90;99.90;;;;;;5073070;28;20467;-85
2023/01/22 12:54:25;;;;;;;8.52;6.82;;;2.80;99.90;;;;;;5073201;28;20044;-79
2023/01/22 12:57:12;;;;;;;7.35;5.80;;;2.70;99.90;;;;;;5055997;28;20064;-80
2023/01/22 12:59:38;;;;;;;9.45;6.25;;;2.80;99.90;;;;;;5073901;28;20048;-83
2023/01/22 13:02:19;;;;;;;11.85;6.65;;;2.80;99.90;;;;;;5038938;28;20040;-85
2023/01/22 13:04:45;;;;;;;9.00;6.75;;;2.70;99.90;;;;;;5073646;28;20076;-84
2023/01/22 13:07:35;;;;;;;6.47;5.75;;;2.80;99.90;;;;;;5055247;28;20040;-85
2023/01/22 13:10:03;;;;;;;8.30;5.50;;;2.90;99.90;;;;;;5073104;28;20071;-82